sensor_id;sensor_type;location;lat;lon;timestamp;P1;durP1;ratioP1;P2;durP2;ratioP2
61104;SDS011;46987;32.638;-115.438;2023-12-20T00:02:06;34.05;;;18.38;;
61104;SDS011;46987;32.638;-115.438;2023-12-20T00:04:32;38.50;;;18.88;;
61104;SDS011;46987;32.638;-115.438;2023-12-20T00:06:59;39.35;;;20.48;;
61104;SDS011;46987;32.638;-115.438;2023-12-20T00:09:25;29.85;;;20.42;;
61104;SDS011;46987;32.638;-115.438;2023-12-20T00:11:54;34.65;;;19.85;;
61104;SDS011;46987;32.638;-115.438;2023-12-20T00:14:20;37.78;;;20.27;;
61104;SDS011;46987;32.638;-115.438;2023-12-20T00:16:47;42.58;;;20.83;;
61104;SDS011;46987;32.638;-115.438;2023-12-20T00:19:13;40.05;;;19.48;;
61104;SDS011;46987;32.638;-115.438;2023-12-20T00:21:40;37.08;;;20.58;;
61104;SDS011;46987;32.638;-115.438;2023-12-20T00:24:07;45.92;;;20.20;;
61104;SDS011;46987;32.638;-115.438;2023-12-20T00:26:33;34.83;;;19.73;;
61104;SDS011;46987;32.638;-115.438;2023-12-20T00:29:01;43.85;;;19.20;;
61104;SDS011;46987;32.638;-115.438;2023-12-20T00:31:28;24.33;;;16.85;;
61104;SDS011;46987;32.638;-115.438;2023-12-20T00:33:55;39.53;;;17.00;;
61104;SDS011;46987;32.638;-115.438;2023-12-20T00:36:22;41.05;;;17.23;;
61104;SDS011;46987;32.638;-115.438;2023-12-20T00:38:49;37.25;;;16.17;;
61104;SDS011;46987;32.638;-115.438;2023-12-20T00:41:16;40.65;;;20.15;;
61104;SDS011;46987;32.638;-115.438;2023-12-20T00:43:42;48.53;;;21.63;;
61104;SDS011;46987;32.638;-115.438;2023-12-20T00:46:10;36.90;;;19.95;;
61104;SDS011;46987;32.638;-115.438;2023-12-20T00:48:37;53.25;;;20.48;;
61104;SDS011;46987;32.638;-115.438;2023-12-20T00:51:04;46.00;;;19.40;;
61104;SDS011;46987;32.638;-115.438;2023-12-20T00:53:30;55.97;;;21.05;;
61104;SDS011;46987;32.638;-115.438;2023-12-20T00:55:57;49.08;;;22.30;;
61104;SDS011;46987;32.638;-115.438;2023-12-20T00:58:24;65.47;;;23.63;;
61104;SDS011;46987;32.638;-115.438;2023-12-20T01:00:51;56.13;;;22.92;;
61104;SDS011;46987;32.638;-115.438;2023-12-20T01:03:20;45.85;;;21.65;;
61104;SDS011;46987;32.638;-115.438;2023-12-20T01:05:46;51.97;;;22.60;;
61104;SDS011;46987;32.638;-115.438;2023-12-20T01:08:13;66.07;;;24.58;;
61104;SDS011;46987;32.638;-115.438;2023-12-20T01:10:40;55.58;;;25.92;;
61104;SDS011;46987;32.638;-115.438;2023-12-20T01:13:06;80.13;;;26.48;;
61104;SDS011;46987;32.638;-115.438;2023-12-20T01:15:34;70.63;;;25.15;;
61104;SDS011;46987;32.638;-115.438;2023-12-20T01:18:01;69.75;;;25.20;;
61104;SDS011;46987;32.638;-115.438;2023-12-20T01:20:30;58.00;;;23.67;;
61104;SDS011;46987;32.638;-115.438;2023-12-20T01:22:57;66.15;;;25.45;;
61104;SDS011;46987;32.638;-115.438;2023-12-20T01:25:23;77.03;;;25.95;;
61104;SDS011;46987;32.638;-115.438;2023-12-20T01:27:50;74.80;;;25.83;;
61104;SDS011;46987;32.638;-115.438;2023-12-20T01:30:17;98.93;;;33.55;;
61104;SDS011;46987;32.638;-115.438;2023-12-20T01:32:43;71.10;;;27.90;;
61104;SDS011;46987;32.638;-115.438;2023-12-20T01:35:15;85.22;;;30.02;;
61104;SDS011;46987;32.638;-115.438;2023-12-20T01:37:43;76.82;;;24.75;;
61104;SDS011;46987;32.638;-115.438;2023-12-20T01:40:10;64.70;;;19.92;;
61104;SDS011;46987;32.638;-115.438;2023-12-20T01:42:37;57.58;;;19.77;;
61104;SDS011;46987;32.638;-115.438;2023-12-20T01:45:04;59.15;;;18.50;;
61104;SDS011;46987;32.638;-115.438;2023-12-20T01:47:31;62.05;;;18.40;;
61104;SDS011;46987;32.638;-115.438;2023-12-20T01:49:57;54.53;;;18.33;;
61104;SDS011;46987;32.638;-115.438;2023-12-20T01:52:24;51.08;;;15.60;;
61104;SDS011;46987;32.638;-115.438;2023-12-20T01:54:53;48.55;;;15.52;;
61104;SDS011;46987;32.638;-115.438;2023-12-20T01:57:22;45.83;;;14.70;;
61104;SDS011;46987;32.638;-115.438;2023-12-20T01:59:49;41.42;;;14.88;;
61104;SDS011;46987;32.638;-115.438;2023-12-20T02:02:16;39.83;;;15.02;;
61104;SDS011;46987;32.638;-115.438;2023-12-20T02:04:43;57.15;;;15.75;;
61104;SDS011;46987;32.638;-115.438;2023-12-20T02:07:10;44.63;;;16.10;;
61104;SDS011;46987;32.638;-115.438;2023-12-20T02:09:37;45.03;;;15.73;;
61104;SDS011;46987;32.638;-115.438;2023-12-20T02:12:06;55.90;;;16.40;;
61104;SDS011;46987;32.638;-115.438;2023-12-20T02:14:33;60.50;;;16.23;;
61104;SDS011;46987;32.638;-115.438;2023-12-20T02:16:59;42.42;;;15.82;;
61104;SDS011;46987;32.638;-115.438;2023-12-20T02:19:26;50.35;;;16.23;;
61104;SDS011;46987;32.638;-115.438;2023-12-20T02:22:06;37.17;;;15.52;;
61104;SDS011;46987;32.638;-115.438;2023-12-20T02:24:33;47.85;;;16.05;;
61104;SDS011;46987;32.638;-115.438;2023-12-20T02:26:59;58.17;;;16.20;;
61104;SDS011;46987;32.638;-115.438;2023-12-20T02:29:26;51.88;;;16.52;;
61104;SDS011;46987;32.638;-115.438;2023-12-20T02:31:52;41.75;;;16.20;;
61104;SDS011;46987;32.638;-115.438;2023-12-20T02:34:19;50.10;;;16.13;;
61104;SDS011;46987;32.638;-115.438;2023-12-20T02:36:46;44.88;;;16.27;;
61104;SDS011;46987;32.638;-115.438;2023-12-20T02:39:15;35.42;;;15.63;;
61104;SDS011;46987;32.638;-115.438;2023-12-20T02:41:42;48.78;;;15.75;;
61104;SDS011;46987;32.638;-115.438;2023-12-20T02:44:08;39.38;;;15.80;;
61104;SDS011;46987;32.638;-115.438;2023-12-20T02:46:35;51.60;;;17.05;;
61104;SDS011;46987;32.638;-115.438;2023-12-20T02:49:01;54.95;;;16.50;;
61104;SDS011;46987;32.638;-115.438;2023-12-20T02:51:28;44.88;;;15.60;;
61104;SDS011;46987;32.638;-115.438;2023-12-20T02:53:55;44.30;;;14.52;;
61104;SDS011;46987;32.638;-115.438;2023-12-20T02:56:23;43.47;;;15.13;;
61104;SDS011;46987;32.638;-115.438;2023-12-20T02:58:50;64.13;;;21.00;;
61104;SDS011;46987;32.638;-115.438;2023-12-20T03:01:17;59.58;;;18.75;;
61104;SDS011;46987;32.638;-115.438;2023-12-20T03:03:43;52.70;;;17.88;;
61104;SDS011;46987;32.638;-115.438;2023-12-20T03:06:10;56.80;;;16.17;;
61104;SDS011;46987;32.638;-115.438;2023-12-20T03:08:36;57.28;;;16.60;;
61104;SDS011;46987;32.638;-115.438;2023-12-20T03:11:03;49.85;;;15.70;;
61104;SDS011;46987;32.638;-115.438;2023-12-20T03:13:31;44.30;;;14.95;;
61104;SDS011;46987;32.638;-115.438;2023-12-20T03:15:58;54.33;;;16.73;;
61104;SDS011;46987;32.638;-115.438;2023-12-20T03:18:24;42.85;;;14.63;;
61104;SDS011;46987;32.638;-115.438;2023-12-20T03:20:51;29.52;;;14.45;;
61104;SDS011;46987;32.638;-115.438;2023-12-20T03:23:18;36.15;;;15.07;;
61104;SDS011;46987;32.638;-115.438;2023-12-20T03:25:44;35.95;;;14.70;;
61104;SDS011;46987;32.638;-115.438;2023-12-20T03:28:11;37.35;;;15.57;;
61104;SDS011;46987;32.638;-115.438;2023-12-20T03:30:39;44.53;;;16.65;;
61104;SDS011;46987;32.638;-115.438;2023-12-20T03:33:06;44.45;;;16.77;;
61104;SDS011;46987;32.638;-115.438;2023-12-20T03:35:33;45.45;;;15.93;;
61104;SDS011;46987;32.638;-115.438;2023-12-20T03:38:00;36.15;;;15.88;;
61104;SDS011;46987;32.638;-115.438;2023-12-20T03:40:27;35.03;;;14.90;;
61104;SDS011;46987;32.638;-115.438;2023-12-20T03:42:53;46.88;;;15.02;;
61104;SDS011;46987;32.638;-115.438;2023-12-20T03:45:20;36.80;;;13.55;;
61104;SDS011;46987;32.638;-115.438;2023-12-20T03:47:48;34.40;;;15.00;;
61104;SDS011;46987;32.638;-115.438;2023-12-20T03:50:16;33.63;;;12.43;;
61104;SDS011;46987;32.638;-115.438;2023-12-20T03:52:42;37.13;;;13.68;;
61104;SDS011;46987;32.638;-115.438;2023-12-20T03:55:09;23.15;;;12.55;;
61104;SDS011;46987;32.638;-115.438;2023-12-20T03:57:36;28.98;;;13.45;;
61104;SDS011;46987;32.638;-115.438;2023-12-20T04:00:03;29.05;;;12.38;;
61104;SDS011;46987;32.638;-115.438;2023-12-20T04:02:38;26.23;;;12.27;;
61104;SDS011;46987;32.638;-115.438;2023-12-20T04:05:06;32.22;;;12.68;;
61104;SDS011;46987;32.638;-115.438;2023-12-20T04:07:33;25.83;;;12.40;;
61104;SDS011;46987;32.638;-115.438;2023-12-20T04:10:00;29.67;;;11.73;;
61104;SDS011;46987;32.638;-115.438;2023-12-20T04:12:27;32.92;;;13.07;;
61104;SDS011;46987;32.638;-115.438;2023-12-20T04:14:54;39.95;;;13.48;;
61104;SDS011;46987;32.638;-115.438;2023-12-20T04:17:21;27.08;;;12.82;;
61104;SDS011;46987;32.638;-115.438;2023-12-20T04:19:49;36.97;;;13.38;;
61104;SDS011;46987;32.638;-115.438;2023-12-20T04:22:17;32.05;;;12.95;;
61104;SDS011;46987;32.638;-115.438;2023-12-20T04:24:44;28.98;;;12.32;;
61104;SDS011;46987;32.638;-115.438;2023-12-20T04:27:10;32.10;;;13.05;;
61104;SDS011;46987;32.638;-115.438;2023-12-20T04:29:37;39.33;;;17.23;;
61104;SDS011;46987;32.638;-115.438;2023-12-20T04:32:04;35.17;;;17.42;;
61104;SDS011;46987;32.638;-115.438;2023-12-20T04:34:30;43.38;;;24.08;;
61104;SDS011;46987;32.638;-115.438;2023-12-20T04:36:57;37.58;;;18.73;;
61104;SDS011;46987;32.638;-115.438;2023-12-20T04:39:26;41.65;;;19.38;;
61104;SDS011;46987;32.638;-115.438;2023-12-20T04:41:52;52.15;;;20.70;;
61104;SDS011;46987;32.638;-115.438;2023-12-20T04:44:19;41.45;;;20.73;;
61104;SDS011;46987;32.638;-115.438;2023-12-20T04:46:45;47.50;;;20.58;;
61104;SDS011;46987;32.638;-115.438;2023-12-20T04:49:13;39.95;;;20.23;;
61104;SDS011;46987;32.638;-115.438;2023-12-20T04:51:39;40.30;;;19.88;;
61104;SDS011;46987;32.638;-115.438;2023-12-20T04:54:06;38.33;;;18.05;;
61104;SDS011;46987;32.638;-115.438;2023-12-20T04:56:34;44.10;;;18.42;;
61104;SDS011;46987;32.638;-115.438;2023-12-20T04:59:01;41.38;;;16.17;;
61104;SDS011;46987;32.638;-115.438;2023-12-20T05:01:27;47.53;;;16.80;;
61104;SDS011;46987;32.638;-115.438;2023-12-20T05:03:54;38.88;;;16.17;;
61104;SDS011;46987;32.638;-115.438;2023-12-20T05:06:21;36.10;;;16.15;;
61104;SDS011;46987;32.638;-115.438;2023-12-20T05:08:48;42.78;;;15.38;;
61104;SDS011;46987;32.638;-115.438;2023-12-20T05:11:14;37.40;;;15.93;;
61104;SDS011;46987;32.638;-115.438;2023-12-20T05:13:43;37.70;;;15.18;;
61104;SDS011;46987;32.638;-115.438;2023-12-20T05:16:10;32.17;;;15.35;;
61104;SDS011;46987;32.638;-115.438;2023-12-20T05:18:37;39.08;;;16.27;;
61104;SDS011;46987;32.638;-115.438;2023-12-20T05:21:03;39.95;;;17.08;;
61104;SDS011;46987;32.638;-115.438;2023-12-20T05:23:30;38.50;;;16.77;;
61104;SDS011;46987;32.638;-115.438;2023-12-20T05:25:57;28.10;;;14.68;;
61104;SDS011;46987;32.638;-115.438;2023-12-20T05:28:25;25.83;;;14.77;;
61104;SDS011;46987;32.638;-115.438;2023-12-20T05:30:54;42.10;;;16.02;;
61104;SDS011;46987;32.638;-115.438;2023-12-20T05:33:20;28.90;;;14.35;;
61104;SDS011;46987;32.638;-115.438;2023-12-20T05:35:47;31.23;;;15.93;;
61104;SDS011;46987;32.638;-115.438;2023-12-20T05:38:13;33.13;;;15.65;;
61104;SDS011;46987;32.638;-115.438;2023-12-20T05:40:40;34.90;;;16.42;;
61104;SDS011;46987;32.638;-115.438;2023-12-20T05:43:06;32.58;;;15.73;;
61104;SDS011;46987;32.638;-115.438;2023-12-20T05:45:33;38.58;;;16.33;;
61104;SDS011;46987;32.638;-115.438;2023-12-20T05:48:02;45.10;;;18.42;;
61104;SDS011;46987;32.638;-115.438;2023-12-20T05:50:28;63.70;;;19.17;;
61104;SDS011;46987;32.638;-115.438;2023-12-20T05:52:55;47.78;;;18.45;;
61104;SDS011;46987;32.638;-115.438;2023-12-20T05:55:22;58.38;;;18.80;;
61104;SDS011;46987;32.638;-115.438;2023-12-20T05:57:48;42.20;;;17.20;;
61104;SDS011;46987;32.638;-115.438;2023-12-20T06:00:15;38.47;;;17.60;;
61104;SDS011;46987;32.638;-115.438;2023-12-20T06:02:42;38.33;;;17.00;;
61104;SDS011;46987;32.638;-115.438;2023-12-20T06:05:11;37.72;;;16.35;;
61104;SDS011;46987;32.638;-115.438;2023-12-20T06:07:37;27.13;;;16.05;;
61104;SDS011;46987;32.638;-115.438;2023-12-20T06:10:04;31.88;;;15.90;;
61104;SDS011;46987;32.638;-115.438;2023-12-20T06:12:32;32.88;;;15.98;;
61104;SDS011;46987;32.638;-115.438;2023-12-20T06:15:02;31.58;;;14.93;;
61104;SDS011;46987;32.638;-115.438;2023-12-20T06:17:28;31.77;;;16.58;;
61104;SDS011;46987;32.638;-115.438;2023-12-20T06:19:56;40.85;;;15.63;;
61104;SDS011;46987;32.638;-115.438;2023-12-20T06:22:25;33.75;;;16.20;;
61104;SDS011;46987;32.638;-115.438;2023-12-20T06:24:51;32.70;;;15.02;;
61104;SDS011;46987;32.638;-115.438;2023-12-20T06:27:18;29.63;;;15.77;;
61104;SDS011;46987;32.638;-115.438;2023-12-20T06:29:44;31.45;;;15.63;;
61104;SDS011;46987;32.638;-115.438;2023-12-20T06:32:11;33.72;;;15.68;;
61104;SDS011;46987;32.638;-115.438;2023-12-20T06:34:38;31.50;;;16.35;;
61104;SDS011;46987;32.638;-115.438;2023-12-20T06:37:04;38.05;;;16.48;;
61104;SDS011;46987;32.638;-115.438;2023-12-20T06:39:33;32.22;;;16.50;;
61104;SDS011;46987;32.638;-115.438;2023-12-20T06:42:00;30.65;;;16.38;;
61104;SDS011;46987;32.638;-115.438;2023-12-20T06:44:26;33.58;;;15.82;;
61104;SDS011;46987;32.638;-115.438;2023-12-20T06:46:53;31.35;;;16.35;;
61104;SDS011;46987;32.638;-115.438;2023-12-20T06:49:20;34.10;;;16.77;;
61104;SDS011;46987;32.638;-115.438;2023-12-20T06:51:46;29.17;;;16.05;;
61104;SDS011;46987;32.638;-115.438;2023-12-20T06:54:13;33.38;;;15.98;;
61104;SDS011;46987;32.638;-115.438;2023-12-20T06:56:41;30.83;;;15.38;;
61104;SDS011;46987;32.638;-115.438;2023-12-20T06:59:07;34.00;;;16.40;;
61104;SDS011;46987;32.638;-115.438;2023-12-20T07:01:34;30.33;;;15.07;;
61104;SDS011;46987;32.638;-115.438;2023-12-20T07:04:01;33.83;;;16.70;;
61104;SDS011;46987;32.638;-115.438;2023-12-20T07:06:27;37.70;;;20.23;;
61104;SDS011;46987;32.638;-115.438;2023-12-20T07:08:54;42.60;;;20.42;;
61104;SDS011;46987;32.638;-115.438;2023-12-20T07:11:20;39.75;;;21.90;;
61104;SDS011;46987;32.638;-115.438;2023-12-20T07:13:49;38.03;;;21.65;;
61104;SDS011;46987;32.638;-115.438;2023-12-20T07:16:15;42.95;;;21.10;;
61104;SDS011;46987;32.638;-115.438;2023-12-20T07:18:42;40.00;;;21.52;;
61104;SDS011;46987;32.638;-115.438;2023-12-20T07:21:09;43.20;;;22.02;;
61104;SDS011;46987;32.638;-115.438;2023-12-20T07:23:35;50.40;;;22.38;;
61104;SDS011;46987;32.638;-115.438;2023-12-20T07:26:02;43.10;;;22.85;;
61104;SDS011;46987;32.638;-115.438;2023-12-20T07:28:30;54.22;;;23.80;;
61104;SDS011;46987;32.638;-115.438;2023-12-20T07:30:58;38.17;;;21.05;;
61104;SDS011;46987;32.638;-115.438;2023-12-20T07:33:25;47.60;;;22.10;;
61104;SDS011;46987;32.638;-115.438;2023-12-20T07:35:51;37.22;;;19.80;;
61104;SDS011;46987;32.638;-115.438;2023-12-20T07:38:18;44.05;;;20.25;;
61104;SDS011;46987;32.638;-115.438;2023-12-20T07:40:45;36.15;;;18.02;;
61104;SDS011;46987;32.638;-115.438;2023-12-20T07:43:11;45.88;;;19.83;;
61104;SDS011;46987;32.638;-115.438;2023-12-20T07:45:38;40.97;;;20.92;;
61104;SDS011;46987;32.638;-115.438;2023-12-20T07:48:07;48.50;;;22.02;;
61104;SDS011;46987;32.638;-115.438;2023-12-20T07:50:34;55.55;;;21.85;;
61104;SDS011;46987;32.638;-115.438;2023-12-20T07:53:01;48.35;;;19.63;;
61104;SDS011;46987;32.638;-115.438;2023-12-20T07:55:29;42.58;;;20.27;;
61104;SDS011;46987;32.638;-115.438;2023-12-20T07:57:57;44.13;;;20.45;;
61104;SDS011;46987;32.638;-115.438;2023-12-20T08:00:24;48.20;;;20.58;;
61104;SDS011;46987;32.638;-115.438;2023-12-20T08:02:50;45.50;;;22.00;;
61104;SDS011;46987;32.638;-115.438;2023-12-20T08:05:18;49.97;;;22.92;;
61104;SDS011;46987;32.638;-115.438;2023-12-20T08:07:45;47.70;;;22.65;;
61104;SDS011;46987;32.638;-115.438;2023-12-20T08:10:12;48.78;;;22.45;;
61104;SDS011;46987;32.638;-115.438;2023-12-20T08:12:38;49.13;;;22.83;;
61104;SDS011;46987;32.638;-115.438;2023-12-20T08:15:06;48.63;;;23.98;;
61104;SDS011;46987;32.638;-115.438;2023-12-20T08:17:33;49.05;;;24.23;;
61104;SDS011;46987;32.638;-115.438;2023-12-20T08:19:59;55.38;;;26.30;;
61104;SDS011;46987;32.638;-115.438;2023-12-20T08:22:27;62.75;;;27.80;;
61104;SDS011;46987;32.638;-115.438;2023-12-20T08:24:54;68.90;;;29.63;;
61104;SDS011;46987;32.638;-115.438;2023-12-20T08:27:21;75.00;;;31.67;;
61104;SDS011;46987;32.638;-115.438;2023-12-20T08:29:48;87.07;;;33.75;;
61104;SDS011;46987;32.638;-115.438;2023-12-20T08:32:16;65.22;;;32.72;;
61104;SDS011;46987;32.638;-115.438;2023-12-20T08:34:42;80.07;;;36.35;;
61104;SDS011;46987;32.638;-115.438;2023-12-20T08:37:09;96.63;;;39.75;;
61104;SDS011;46987;32.638;-115.438;2023-12-20T08:39:37;93.57;;;42.42;;
61104;SDS011;46987;32.638;-115.438;2023-12-20T08:42:04;84.63;;;43.28;;
61104;SDS011;46987;32.638;-115.438;2023-12-20T08:44:31;89.15;;;44.83;;
61104;SDS011;46987;32.638;-115.438;2023-12-20T08:46:57;97.63;;;42.05;;
61104;SDS011;46987;32.638;-115.438;2023-12-20T08:49:24;92.95;;;44.03;;
61104;SDS011;46987;32.638;-115.438;2023-12-20T08:51:51;87.35;;;43.20;;
61104;SDS011;46987;32.638;-115.438;2023-12-20T08:54:18;94.13;;;43.95;;
61104;SDS011;46987;32.638;-115.438;2023-12-20T08:56:47;85.47;;;42.83;;
61104;SDS011;46987;32.638;-115.438;2023-12-20T08:59:13;99.10;;;44.47;;
61104;SDS011;46987;32.638;-115.438;2023-12-20T09:01:40;91.72;;;43.90;;
61104;SDS011;46987;32.638;-115.438;2023-12-20T09:04:07;89.80;;;42.38;;
61104;SDS011;46987;32.638;-115.438;2023-12-20T09:06:33;78.72;;;40.10;;
61104;SDS011;46987;32.638;-115.438;2023-12-20T09:09:00;92.32;;;42.30;;
61104;SDS011;46987;32.638;-115.438;2023-12-20T09:11:26;89.03;;;40.97;;
61104;SDS011;46987;32.638;-115.438;2023-12-20T09:13:55;79.10;;;40.40;;
61104;SDS011;46987;32.638;-115.438;2023-12-20T09:16:21;100.97;;;43.55;;
61104;SDS011;46987;32.638;-115.438;2023-12-20T09:18:48;89.45;;;42.40;;
61104;SDS011;46987;32.638;-115.438;2023-12-20T09:21:15;84.07;;;40.45;;
61104;SDS011;46987;32.638;-115.438;2023-12-20T09:23:41;87.18;;;41.17;;
61104;SDS011;46987;32.638;-115.438;2023-12-20T09:26:08;89.32;;;42.17;;
61104;SDS011;46987;32.638;-115.438;2023-12-20T09:28:35;78.57;;;41.10;;
61104;SDS011;46987;32.638;-115.438;2023-12-20T09:31:05;91.50;;;43.58;;
61104;SDS011;46987;32.638;-115.438;2023-12-20T09:33:32;88.68;;;43.90;;
61104;SDS011;46987;32.638;-115.438;2023-12-20T09:35:59;89.00;;;42.78;;
61104;SDS011;46987;32.638;-115.438;2023-12-20T09:38:26;88.55;;;46.53;;
61104;SDS011;46987;32.638;-115.438;2023-12-20T09:40:52;101.13;;;46.30;;
61104;SDS011;46987;32.638;-115.438;2023-12-20T09:43:21;87.78;;;44.22;;
61104;SDS011;46987;32.638;-115.438;2023-12-20T09:45:50;97.85;;;46.80;;
61104;SDS011;46987;32.638;-115.438;2023-12-20T09:48:21;93.55;;;45.67;;
61104;SDS011;46987;32.638;-115.438;2023-12-20T09:50:47;83.72;;;45.60;;
61104;SDS011;46987;32.638;-115.438;2023-12-20T09:53:14;89.45;;;44.50;;
61104;SDS011;46987;32.638;-115.438;2023-12-20T09:55:41;94.82;;;47.17;;
61104;SDS011;46987;32.638;-115.438;2023-12-20T09:58:08;94.65;;;47.10;;
61104;SDS011;46987;32.638;-115.438;2023-12-20T10:00:35;89.72;;;43.53;;
61104;SDS011;46987;32.638;-115.438;2023-12-20T10:03:01;92.07;;;45.67;;
61104;SDS011;46987;32.638;-115.438;2023-12-20T10:05:30;95.40;;;45.30;;
61104;SDS011;46987;32.638;-115.438;2023-12-20T10:07:57;97.82;;;47.03;;
61104;SDS011;46987;32.638;-115.438;2023-12-20T10:10:23;88.25;;;46.47;;
61104;SDS011;46987;32.638;-115.438;2023-12-20T10:13:02;84.70;;;44.55;;
61104;SDS011;46987;32.638;-115.438;2023-12-20T10:15:30;88.15;;;47.42;;
61104;SDS011;46987;32.638;-115.438;2023-12-20T10:17:56;95.97;;;46.17;;
61104;SDS011;46987;32.638;-115.438;2023-12-20T10:20:24;97.30;;;44.95;;
61104;SDS011;46987;32.638;-115.438;2023-12-20T10:22:52;95.07;;;46.65;;
61104;SDS011;46987;32.638;-115.438;2023-12-20T10:25:19;93.15;;;46.83;;
61104;SDS011;46987;32.638;-115.438;2023-12-20T10:27:46;93.05;;;44.85;;
61104;SDS011;46987;32.638;-115.438;2023-12-20T10:30:13;99.45;;;44.05;;
61104;SDS011;46987;32.638;-115.438;2023-12-20T10:32:40;82.45;;;44.72;;
61104;SDS011;46987;32.638;-115.438;2023-12-20T10:35:08;87.13;;;44.58;;
61104;SDS011;46987;32.638;-115.438;2023-12-20T10:37:35;106.25;;;47.97;;
61104;SDS011;46987;32.638;-115.438;2023-12-20T10:40:04;92.60;;;45.85;;
61104;SDS011;46987;32.638;-115.438;2023-12-20T10:42:32;93.20;;;47.78;;
61104;SDS011;46987;32.638;-115.438;2023-12-20T10:45:02;88.93;;;43.42;;
61104;SDS011;46987;32.638;-115.438;2023-12-20T10:47:30;99.05;;;45.83;;
61104;SDS011;46987;32.638;-115.438;2023-12-20T10:49:57;86.63;;;43.58;;
61104;SDS011;46987;32.638;-115.438;2023-12-20T10:52:25;96.70;;;45.58;;
61104;SDS011;46987;32.638;-115.438;2023-12-20T10:54:54;84.10;;;44.80;;
61104;SDS011;46987;32.638;-115.438;2023-12-20T10:57:22;85.95;;;44.88;;
61104;SDS011;46987;32.638;-115.438;2023-12-20T10:59:49;93.85;;;46.05;;
61104;SDS011;46987;32.638;-115.438;2023-12-20T11:02:18;77.72;;;44.83;;
61104;SDS011;46987;32.638;-115.438;2023-12-20T11:04:47;84.43;;;45.70;;
61104;SDS011;46987;32.638;-115.438;2023-12-20T11:07:19;90.28;;;44.03;;
61104;SDS011;46987;32.638;-115.438;2023-12-20T11:09:49;82.90;;;43.05;;
61104;SDS011;46987;32.638;-115.438;2023-12-20T11:12:25;86.07;;;44.60;;
61104;SDS011;46987;32.638;-115.438;2023-12-20T11:14:53;81.00;;;41.95;;
61104;SDS011;46987;32.638;-115.438;2023-12-20T11:17:23;85.72;;;42.55;;
61104;SDS011;46987;32.638;-115.438;2023-12-20T11:20:06;87.45;;;43.97;;
61104;SDS011;46987;32.638;-115.438;2023-12-20T11:22:34;83.82;;;42.38;;
61104;SDS011;46987;32.638;-115.438;2023-12-20T11:25:03;78.90;;;41.40;;
61104;SDS011;46987;32.638;-115.438;2023-12-20T11:27:32;76.00;;;40.88;;
61104;SDS011;46987;32.638;-115.438;2023-12-20T11:29:58;101.25;;;45.20;;
61104;SDS011;46987;32.638;-115.438;2023-12-20T11:32:30;87.38;;;43.90;;
61104;SDS011;46987;32.638;-115.438;2023-12-20T11:34:57;89.40;;;44.47;;
61104;SDS011;46987;32.638;-115.438;2023-12-20T11:37:28;84.85;;;44.55;;
61104;SDS011;46987;32.638;-115.438;2023-12-20T11:39:56;81.45;;;44.28;;
61104;SDS011;46987;32.638;-115.438;2023-12-20T11:42:23;85.00;;;42.75;;
61104;SDS011;46987;32.638;-115.438;2023-12-20T11:44:51;82.05;;;44.47;;
61104;SDS011;46987;32.638;-115.438;2023-12-20T11:47:18;86.65;;;45.42;;
61104;SDS011;46987;32.638;-115.438;2023-12-20T11:49:47;74.63;;;42.28;;
61104;SDS011;46987;32.638;-115.438;2023-12-20T11:52:14;80.40;;;44.60;;
61104;SDS011;46987;32.638;-115.438;2023-12-20T11:54:41;78.22;;;43.35;;
61104;SDS011;46987;32.638;-115.438;2023-12-20T11:57:07;85.55;;;44.75;;
61104;SDS011;46987;32.638;-115.438;2023-12-20T11:59:34;92.18;;;44.53;;
61104;SDS011;46987;32.638;-115.438;2023-12-20T12:02:02;82.80;;;41.80;;
61104;SDS011;46987;32.638;-115.438;2023-12-20T12:04:29;89.32;;;43.20;;
61104;SDS011;46987;32.638;-115.438;2023-12-20T12:06:56;76.45;;;41.83;;
61104;SDS011;46987;32.638;-115.438;2023-12-20T12:09:22;83.13;;;41.28;;
61104;SDS011;46987;32.638;-115.438;2023-12-20T12:11:49;71.57;;;41.85;;
61104;SDS011;46987;32.638;-115.438;2023-12-20T12:14:16;78.22;;;41.30;;
61104;SDS011;46987;32.638;-115.438;2023-12-20T12:16:44;82.13;;;43.80;;
61104;SDS011;46987;32.638;-115.438;2023-12-20T12:19:21;76.07;;;41.55;;
61104;SDS011;46987;32.638;-115.438;2023-12-20T12:21:49;72.57;;;41.47;;
61104;SDS011;46987;32.638;-115.438;2023-12-20T12:24:19;77.50;;;40.58;;
61104;SDS011;46987;32.638;-115.438;2023-12-20T12:26:49;77.63;;;40.65;;
61104;SDS011;46987;32.638;-115.438;2023-12-20T12:29:16;75.45;;;40.80;;
61104;SDS011;46987;32.638;-115.438;2023-12-20T12:31:43;79.55;;;40.70;;
61104;SDS011;46987;32.638;-115.438;2023-12-20T12:34:09;101.35;;;43.88;;
61104;SDS011;46987;32.638;-115.438;2023-12-20T12:36:38;79.65;;;42.88;;
61104;SDS011;46987;32.638;-115.438;2023-12-20T12:39:05;81.85;;;40.85;;
61104;SDS011;46987;32.638;-115.438;2023-12-20T12:41:32;71.28;;;40.90;;
61104;SDS011;46987;32.638;-115.438;2023-12-20T12:43:59;69.90;;;42.05;;
61104;SDS011;46987;32.638;-115.438;2023-12-20T12:46:26;86.05;;;40.83;;
61104;SDS011;46987;32.638;-115.438;2023-12-20T12:48:52;70.78;;;39.45;;
61104;SDS011;46987;32.638;-115.438;2023-12-20T12:51:19;74.47;;;40.70;;
61104;SDS011;46987;32.638;-115.438;2023-12-20T12:53:47;81.97;;;40.15;;
61104;SDS011;46987;32.638;-115.438;2023-12-20T12:56:15;79.47;;;41.35;;
61104;SDS011;46987;32.638;-115.438;2023-12-20T12:58:41;77.45;;;39.28;;
61104;SDS011;46987;32.638;-115.438;2023-12-20T13:01:08;70.10;;;39.55;;
61104;SDS011;46987;32.638;-115.438;2023-12-20T13:03:35;74.55;;;40.10;;
61104;SDS011;46987;32.638;-115.438;2023-12-20T13:06:02;78.68;;;40.75;;
61104;SDS011;46987;32.638;-115.438;2023-12-20T13:08:28;77.10;;;40.22;;
61104;SDS011;46987;32.638;-115.438;2023-12-20T13:10:57;72.05;;;41.17;;
61104;SDS011;46987;32.638;-115.438;2023-12-20T13:13:26;71.93;;;40.78;;
61104;SDS011;46987;32.638;-115.438;2023-12-20T13:15:53;77.50;;;42.05;;
61104;SDS011;46987;32.638;-115.438;2023-12-20T13:18:21;78.82;;;42.63;;
61104;SDS011;46987;32.638;-115.438;2023-12-20T13:20:47;78.45;;;41.38;;
61104;SDS011;46987;32.638;-115.438;2023-12-20T13:23:14;84.03;;;43.28;;
61104;SDS011;46987;32.638;-115.438;2023-12-20T13:25:41;81.45;;;42.72;;
61104;SDS011;46987;32.638;-115.438;2023-12-20T13:28:10;73.53;;;41.80;;
61104;SDS011;46987;32.638;-115.438;2023-12-20T13:30:36;70.78;;;42.05;;
61104;SDS011;46987;32.638;-115.438;2023-12-20T13:33:03;86.85;;;44.72;;
61104;SDS011;46987;32.638;-115.438;2023-12-20T13:35:29;81.80;;;43.58;;
61104;SDS011;46987;32.638;-115.438;2023-12-20T13:37:56;85.63;;;43.17;;
61104;SDS011;46987;32.638;-115.438;2023-12-20T13:40:23;81.00;;;43.88;;
61104;SDS011;46987;32.638;-115.438;2023-12-20T13:42:49;95.15;;;44.80;;
61104;SDS011;46987;32.638;-115.438;2023-12-20T13:45:18;89.45;;;47.30;;